sensor_id;sensor_type;location;lat;lon;timestamp;P1;durP1;ratioP1;P2;durP2;ratioP2
60370;SDS011;48550;40.588;49.684;2023-05-10T00:00:58;26.33;;;11.00;;
60370;SDS011;48550;40.588;49.684;2023-05-10T00:03:24;22.02;;;10.95;;
60370;SDS011;48550;40.588;49.684;2023-05-10T00:05:50;20.08;;;10.07;;
60370;SDS011;48550;40.588;49.684;2023-05-10T00:08:15;20.40;;;10.90;;
60370;SDS011;48550;40.588;49.684;2023-05-10T00:10:41;27.80;;;12.02;;
60370;SDS011;48550;40.588;49.684;2023-05-10T00:13:07;30.48;;;15.02;;
60370;SDS011;48550;40.588;49.684;2023-05-10T00:15:32;27.70;;;14.98;;
60370;SDS011;48550;40.588;49.684;2023-05-10T00:17:59;27.88;;;14.60;;
60370;SDS011;48550;40.588;49.684;2023-05-10T00:20:25;27.42;;;14.18;;
60370;SDS011;48550;40.588;49.684;2023-05-10T00:22:51;29.98;;;14.52;;
60370;SDS011;48550;40.588;49.684;2023-05-10T00:25:17;32.15;;;15.57;;
60370;SDS011;48550;40.588;49.684;2023-05-10T00:27:42;30.67;;;13.85;;
60370;SDS011;48550;40.588;49.684;2023-05-10T00:30:08;25.02;;;11.90;;
60370;SDS011;48550;40.588;49.684;2023-05-10T00:32:34;23.75;;;11.25;;
60370;SDS011;48550;40.588;49.684;2023-05-10T00:35:00;21.77;;;11.85;;
60370;SDS011;48550;40.588;49.684;2023-05-10T00:37:25;27.67;;;12.23;;
60370;SDS011;48550;40.588;49.684;2023-05-10T00:39:51;24.35;;;11.57;;
60370;SDS011;48550;40.588;49.684;2023-05-10T00:42:17;28.85;;;12.00;;
60370;SDS011;48550;40.588;49.684;2023-05-10T00:44:42;25.27;;;10.85;;
60370;SDS011;48550;40.588;49.684;2023-05-10T00:47:08;26.55;;;11.73;;
60370;SDS011;48550;40.588;49.684;2023-05-10T00:49:35;27.35;;;11.50;;
60370;SDS011;48550;40.588;49.684;2023-05-10T00:52:01;25.92;;;11.65;;
60370;SDS011;48550;40.588;49.684;2023-05-10T00:54:28;22.48;;;11.32;;
60370;SDS011;48550;40.588;49.684;2023-05-10T00:56:54;21.85;;;12.15;;
60370;SDS011;48550;40.588;49.684;2023-05-10T00:59:21;25.20;;;11.38;;
60370;SDS011;48550;40.588;49.684;2023-05-10T01:01:47;29.27;;;11.23;;
60370;SDS011;48550;40.588;49.684;2023-05-10T01:04:13;24.13;;;10.98;;
60370;SDS011;48550;40.588;49.684;2023-05-10T01:06:40;27.13;;;11.80;;
60370;SDS011;48550;40.588;49.684;2023-05-10T01:09:06;22.00;;;11.25;;
60370;SDS011;48550;40.588;49.684;2023-05-10T01:11:36;24.10;;;10.32;;
60370;SDS011;48550;40.588;49.684;2023-05-10T01:14:03;22.52;;;11.07;;
60370;SDS011;48550;40.588;49.684;2023-05-10T01:16:32;21.55;;;10.52;;
60370;SDS011;48550;40.588;49.684;2023-05-10T01:19:27;18.27;;;9.73;;
60370;SDS011;48550;40.588;49.684;2023-05-10T01:30:13;19.48;;;10.13;;
60370;SDS011;48550;40.588;49.684;2023-05-10T01:39:16;23.85;;;10.55;;
60370;SDS011;48550;40.588;49.684;2023-05-10T01:42:09;23.67;;;10.88;;
60370;SDS011;48550;40.588;49.684;2023-05-10T01:47:15;22.52;;;11.30;;
60370;SDS011;48550;40.588;49.684;2023-05-10T01:49:47;23.63;;;11.43;;
60370;SDS011;48550;40.588;49.684;2023-05-10T01:52:16;27.40;;;11.93;;
60370;SDS011;48550;40.588;49.684;2023-05-10T01:54:51;25.00;;;12.98;;
60370;SDS011;48550;40.588;49.684;2023-05-10T01:57:21;31.00;;;14.68;;
60370;SDS011;48550;40.588;49.684;2023-05-10T01:59:50;23.67;;;13.13;;
60370;SDS011;48550;40.588;49.684;2023-05-10T02:02:18;32.67;;;14.02;;
60370;SDS011;48550;40.588;49.684;2023-05-10T02:04:46;27.42;;;14.13;;
60370;SDS011;48550;40.588;49.684;2023-05-10T02:07:14;28.90;;;14.45;;
60370;SDS011;48550;40.588;49.684;2023-05-10T02:09:41;32.63;;;15.45;;
60370;SDS011;48550;40.588;49.684;2023-05-10T02:12:13;30.07;;;14.97;;
60370;SDS011;48550;40.588;49.684;2023-05-10T02:14:40;27.83;;;13.65;;
60370;SDS011;48550;40.588;49.684;2023-05-10T02:17:07;31.75;;;14.13;;
60370;SDS011;48550;40.588;49.684;2023-05-10T02:19:36;33.30;;;15.52;;
60370;SDS011;48550;40.588;49.684;2023-05-10T02:22:03;34.13;;;14.88;;
60370;SDS011;48550;40.588;49.684;2023-05-10T02:24:30;25.92;;;13.68;;
60370;SDS011;48550;40.588;49.684;2023-05-10T02:26:58;31.63;;;14.30;;
60370;SDS011;48550;40.588;49.684;2023-05-10T02:29:25;29.10;;;15.00;;
60370;SDS011;48550;40.588;49.684;2023-05-10T02:31:54;31.05;;;15.13;;
60370;SDS011;48550;40.588;49.684;2023-05-10T02:34:25;31.02;;;16.15;;
60370;SDS011;48550;40.588;49.684;2023-05-10T02:36:52;30.50;;;15.23;;
60370;SDS011;48550;40.588;49.684;2023-05-10T02:39:19;33.63;;;15.32;;
60370;SDS011;48550;40.588;49.684;2023-05-10T02:41:46;31.40;;;15.80;;
60370;SDS011;48550;40.588;49.684;2023-05-10T02:44:14;31.15;;;15.00;;
60370;SDS011;48550;40.588;49.684;2023-05-10T02:46:42;23.13;;;13.50;;
60370;SDS011;48550;40.588;49.684;2023-05-10T02:49:08;26.42;;;13.13;;
60370;SDS011;48550;40.588;49.684;2023-05-10T02:51:35;30.48;;;14.27;;
60370;SDS011;48550;40.588;49.684;2023-05-10T02:54:16;28.98;;;13.88;;
60370;SDS011;48550;40.588;49.684;2023-05-10T02:56:50;31.65;;;13.88;;
60370;SDS011;48550;40.588;49.684;2023-05-10T02:59:19;24.45;;;13.20;;
60370;SDS011;48550;40.588;49.684;2023-05-10T03:01:44;29.00;;;16.10;;
60370;SDS011;48550;40.588;49.684;2023-05-10T03:04:10;29.50;;;14.35;;
60370;SDS011;48550;40.588;49.684;2023-05-10T03:06:36;25.15;;;13.95;;
60370;SDS011;48550;40.588;49.684;2023-05-10T03:09:02;27.77;;;15.65;;
60370;SDS011;48550;40.588;49.684;2023-05-10T03:11:50;28.35;;;15.02;;
60370;SDS011;48550;40.588;49.684;2023-05-10T03:20:22;31.80;;;15.10;;
60370;SDS011;48550;40.588;49.684;2023-05-10T03:23:34;25.05;;;14.05;;
60370;SDS011;48550;40.588;49.684;2023-05-10T03:26:23;24.50;;;14.25;;
60370;SDS011;48550;40.588;49.684;2023-05-10T03:28:51;29.50;;;15.63;;
60370;SDS011;48550;40.588;49.684;2023-05-10T03:31:18;24.58;;;14.07;;
60370;SDS011;48550;40.588;49.684;2023-05-10T03:33:50;32.53;;;15.43;;
60370;SDS011;48550;40.588;49.684;2023-05-10T03:36:17;29.83;;;14.38;;
60370;SDS011;48550;40.588;49.684;2023-05-10T03:38:43;22.67;;;13.27;;
60370;SDS011;48550;40.588;49.684;2023-05-10T03:41:09;24.58;;;12.35;;
60370;SDS011;48550;40.588;49.684;2023-05-10T03:43:35;27.13;;;12.93;;
60370;SDS011;48550;40.588;49.684;2023-05-10T03:46:04;29.35;;;14.57;;
60370;SDS011;48550;40.588;49.684;2023-05-10T03:48:30;28.92;;;13.75;;
60370;SDS011;48550;40.588;49.684;2023-05-10T03:50:57;31.20;;;13.68;;
60370;SDS011;48550;40.588;49.684;2023-05-10T03:53:23;36.90;;;15.55;;
60370;SDS011;48550;40.588;49.684;2023-05-10T03:55:49;36.63;;;14.35;;
60370;SDS011;48550;40.588;49.684;2023-05-10T03:58:15;33.17;;;14.30;;
60370;SDS011;48550;40.588;49.684;2023-05-10T04:00:41;37.50;;;15.50;;
60370;SDS011;48550;40.588;49.684;2023-05-10T04:03:12;46.95;;;15.25;;
60370;SDS011;48550;40.588;49.684;2023-05-10T04:05:37;43.92;;;16.40;;
60370;SDS011;48550;40.588;49.684;2023-05-10T04:08:04;41.53;;;17.35;;
60370;SDS011;48550;40.588;49.684;2023-05-10T04:10:30;42.00;;;18.23;;
60370;SDS011;48550;40.588;49.684;2023-05-10T04:12:56;44.45;;;17.48;;
60370;SDS011;48550;40.588;49.684;2023-05-10T04:15:22;44.42;;;17.42;;
60370;SDS011;48550;40.588;49.684;2023-05-10T04:17:48;55.42;;;20.33;;
60370;SDS011;48550;40.588;49.684;2023-05-10T04:20:13;36.50;;;17.73;;
60370;SDS011;48550;40.588;49.684;2023-05-10T04:22:40;51.83;;;19.23;;
60370;SDS011;48550;40.588;49.684;2023-05-10T04:25:06;41.92;;;18.48;;
60370;SDS011;48550;40.588;49.684;2023-05-10T04:27:32;44.08;;;18.98;;
60370;SDS011;48550;40.588;49.684;2023-05-10T04:29:58;43.25;;;19.58;;
60370;SDS011;48550;40.588;49.684;2023-05-10T04:32:23;38.80;;;17.63;;
60370;SDS011;48550;40.588;49.684;2023-05-10T04:34:49;42.30;;;18.35;;
60370;SDS011;48550;40.588;49.684;2023-05-10T04:37:16;39.08;;;17.48;;
60370;SDS011;48550;40.588;49.684;2023-05-10T04:39:43;50.22;;;17.83;;
60370;SDS011;48550;40.588;49.684;2023-05-10T04:42:08;46.70;;;16.85;;
60370;SDS011;48550;40.588;49.684;2023-05-10T04:44:34;43.58;;;16.52;;
60370;SDS011;48550;40.588;49.684;2023-05-10T04:47:00;53.85;;;15.50;;
60370;SDS011;48550;40.588;49.684;2023-05-10T04:49:27;21.55;;;10.70;;
60370;SDS011;48550;40.588;49.684;2023-05-10T04:51:53;41.55;;;13.05;;
60370;SDS011;48550;40.588;49.684;2023-05-10T04:54:19;22.15;;;10.48;;
60370;SDS011;48550;40.588;49.684;2023-05-10T04:56:45;23.77;;;10.02;;
60370;SDS011;48550;40.588;49.684;2023-05-10T04:59:11;24.80;;;11.02;;
60370;SDS011;48550;40.588;49.684;2023-05-10T05:01:38;21.17;;;9.52;;
60370;SDS011;48550;40.588;49.684;2023-05-10T05:04:04;28.35;;;11.43;;
60370;SDS011;48550;40.588;49.684;2023-05-10T05:06:30;20.88;;;9.88;;
60370;SDS011;48550;40.588;49.684;2023-05-10T05:08:55;15.00;;;7.75;;
60370;SDS011;48550;40.588;49.684;2023-05-10T05:11:21;18.08;;;8.45;;
60370;SDS011;48550;40.588;49.684;2023-05-10T05:13:47;25.20;;;8.10;;
60370;SDS011;48550;40.588;49.684;2023-05-10T05:16:13;16.35;;;7.20;;
60370;SDS011;48550;40.588;49.684;2023-05-10T05:18:38;12.07;;;6.28;;
60370;SDS011;48550;40.588;49.684;2023-05-10T05:21:14;16.92;;;5.80;;
60370;SDS011;48550;40.588;49.684;2023-05-10T05:23:43;11.05;;;5.80;;
60370;SDS011;48550;40.588;49.684;2023-05-10T05:26:09;28.13;;;7.30;;
60370;SDS011;48550;40.588;49.684;2023-05-10T05:28:35;13.55;;;5.30;;
60370;SDS011;48550;40.588;49.684;2023-05-10T05:31:04;11.80;;;5.43;;
60370;SDS011;48550;40.588;49.684;2023-05-10T05:33:31;13.57;;;5.25;;
60370;SDS011;48550;40.588;49.684;2023-05-10T05:35:57;15.57;;;5.65;;
60370;SDS011;48550;40.588;49.684;2023-05-10T05:38:22;11.85;;;5.38;;
60370;SDS011;48550;40.588;49.684;2023-05-10T05:40:48;26.20;;;9.30;;
60370;SDS011;48550;40.588;49.684;2023-05-10T05:43:14;11.88;;;5.50;;
60370;SDS011;48550;40.588;49.684;2023-05-10T05:45:40;10.88;;;4.68;;
60370;SDS011;48550;40.588;49.684;2023-05-10T05:48:06;8.85;;;4.60;;
60370;SDS011;48550;40.588;49.684;2023-05-10T05:50:31;9.13;;;4.28;;
60370;SDS011;48550;40.588;49.684;2023-05-10T05:52:57;10.05;;;5.07;;
60370;SDS011;48550;40.588;49.684;2023-05-10T05:55:23;11.65;;;4.50;;
60370;SDS011;48550;40.588;49.684;2023-05-10T05:57:50;9.70;;;3.70;;
60370;SDS011;48550;40.588;49.684;2023-05-10T06:00:16;8.68;;;4.80;;
60370;SDS011;48550;40.588;49.684;2023-05-10T06:02:42;13.77;;;5.18;;
60370;SDS011;48550;40.588;49.684;2023-05-10T06:05:08;26.77;;;10.13;;
60370;SDS011;48550;40.588;49.684;2023-05-10T06:07:35;8.05;;;3.88;;
60370;SDS011;48550;40.588;49.684;2023-05-10T06:10:01;9.00;;;4.20;;
60370;SDS011;48550;40.588;49.684;2023-05-10T06:12:27;7.78;;;3.55;;
60370;SDS011;48550;40.588;49.684;2023-05-10T06:14:53;8.73;;;4.88;;
60370;SDS011;48550;40.588;49.684;2023-05-10T06:17:19;9.60;;;3.55;;
60370;SDS011;48550;40.588;49.684;2023-05-10T06:19:45;17.95;;;5.70;;
60370;SDS011;48550;40.588;49.684;2023-05-10T06:22:11;9.07;;;3.63;;
60370;SDS011;48550;40.588;49.684;2023-05-10T06:24:36;8.98;;;3.55;;
60370;SDS011;48550;40.588;49.684;2023-05-10T06:27:02;7.43;;;3.30;;
60370;SDS011;48550;40.588;49.684;2023-05-10T06:29:29;7.28;;;3.50;;
60370;SDS011;48550;40.588;49.684;2023-05-10T06:31:54;8.90;;;3.17;;
60370;SDS011;48550;40.588;49.684;2023-05-10T06:34:20;10.77;;;3.60;;
60370;SDS011;48550;40.588;49.684;2023-05-10T06:36:46;6.35;;;2.85;;
60370;SDS011;48550;40.588;49.684;2023-05-10T06:39:11;6.90;;;2.80;;
60370;SDS011;48550;40.588;49.684;2023-05-10T06:41:37;8.52;;;3.35;;
60370;SDS011;48550;40.588;49.684;2023-05-10T06:44:03;6.72;;;3.00;;
60370;SDS011;48550;40.588;49.684;2023-05-10T06:46:29;6.53;;;3.15;;
60370;SDS011;48550;40.588;49.684;2023-05-10T06:48:55;12.73;;;3.40;;
60370;SDS011;48550;40.588;49.684;2023-05-10T06:51:20;6.97;;;3.15;;
60370;SDS011;48550;40.588;49.684;2023-05-10T06:53:46;8.55;;;3.15;;
60370;SDS011;48550;40.588;49.684;2023-05-10T06:56:12;5.68;;;2.63;;
60370;SDS011;48550;40.588;49.684;2023-05-10T06:58:38;10.20;;;3.65;;
60370;SDS011;48550;40.588;49.684;2023-05-10T07:01:04;11.10;;;3.35;;
60370;SDS011;48550;40.588;49.684;2023-05-10T07:03:30;9.35;;;2.92;;
60370;SDS011;48550;40.588;49.684;2023-05-10T07:06:05;4.97;;;2.47;;
60370;SDS011;48550;40.588;49.684;2023-05-10T07:08:35;6.45;;;2.65;;
60370;SDS011;48550;40.588;49.684;2023-05-10T07:11:01;15.73;;;3.30;;
60370;SDS011;48550;40.588;49.684;2023-05-10T07:13:29;4.38;;;2.47;;
60370;SDS011;48550;40.588;49.684;2023-05-10T07:15:56;10.75;;;2.97;;
60370;SDS011;48550;40.588;49.684;2023-05-10T07:18:21;9.10;;;3.58;;
60370;SDS011;48550;40.588;49.684;2023-05-10T07:20:47;8.35;;;2.75;;
60370;SDS011;48550;40.588;49.684;2023-05-10T07:23:13;6.78;;;2.78;;
60370;SDS011;48550;40.588;49.684;2023-05-10T07:25:38;6.95;;;3.00;;
60370;SDS011;48550;40.588;49.684;2023-05-10T07:28:04;6.55;;;2.85;;
60370;SDS011;48550;40.588;49.684;2023-05-10T07:30:30;10.32;;;2.70;;
60370;SDS011;48550;40.588;49.684;2023-05-10T07:32:56;6.88;;;2.80;;
60370;SDS011;48550;40.588;49.684;2023-05-10T07:35:22;9.48;;;3.17;;
60370;SDS011;48550;40.588;49.684;2023-05-10T07:37:47;7.35;;;3.00;;
60370;SDS011;48550;40.588;49.684;2023-05-10T07:40:13;10.27;;;4.20;;
60370;SDS011;48550;40.588;49.684;2023-05-10T07:42:39;11.82;;;3.92;;
60370;SDS011;48550;40.588;49.684;2023-05-10T07:45:05;9.10;;;2.95;;
60370;SDS011;48550;40.588;49.684;2023-05-10T07:47:31;4.80;;;2.83;;
60370;SDS011;48550;40.588;49.684;2023-05-10T07:49:57;5.75;;;2.58;;
60370;SDS011;48550;40.588;49.684;2023-05-10T07:52:23;7.18;;;2.92;;
60370;SDS011;48550;40.588;49.684;2023-05-10T07:54:48;7.25;;;2.80;;
60370;SDS011;48550;40.588;49.684;2023-05-10T07:57:14;7.07;;;3.03;;
60370;SDS011;48550;40.588;49.684;2023-05-10T07:59:42;8.57;;;2.97;;
60370;SDS011;48550;40.588;49.684;2023-05-10T08:02:09;9.07;;;3.00;;
60370;SDS011;48550;40.588;49.684;2023-05-10T08:04:35;8.85;;;3.28;;
60370;SDS011;48550;40.588;49.684;2023-05-10T08:07:00;6.45;;;3.03;;
60370;SDS011;48550;40.588;49.684;2023-05-10T08:09:26;6.78;;;3.30;;
60370;SDS011;48550;40.588;49.684;2023-05-10T08:11:52;7.70;;;3.97;;
60370;SDS011;48550;40.588;49.684;2023-05-10T08:14:18;9.35;;;3.03;;
60370;SDS011;48550;40.588;49.684;2023-05-10T08:16:43;8.20;;;3.30;;
60370;SDS011;48550;40.588;49.684;2023-05-10T08:19:09;9.07;;;3.40;;
60370;SDS011;48550;40.588;49.684;2023-05-10T08:21:35;12.32;;;3.40;;
60370;SDS011;48550;40.588;49.684;2023-05-10T08:24:01;5.43;;;3.25;;
60370;SDS011;48550;40.588;49.684;2023-05-10T08:26:27;8.90;;;3.38;;
60370;SDS011;48550;40.588;49.684;2023-05-10T08:28:52;10.93;;;3.42;;
60370;SDS011;48550;40.588;49.684;2023-05-10T08:31:18;12.15;;;3.55;;
60370;SDS011;48550;40.588;49.684;2023-05-10T08:33:44;7.05;;;3.60;;
60370;SDS011;48550;40.588;49.684;2023-05-10T08:36:10;6.53;;;3.42;;
60370;SDS011;48550;40.588;49.684;2023-05-10T08:38:37;9.00;;;3.30;;
60370;SDS011;48550;40.588;49.684;2023-05-10T08:41:02;6.65;;;3.28;;
60370;SDS011;48550;40.588;49.684;2023-05-10T08:43:30;8.32;;;2.97;;
60370;SDS011;48550;40.588;49.684;2023-05-10T08:45:56;10.90;;;3.85;;
60370;SDS011;48550;40.588;49.684;2023-05-10T08:48:29;9.98;;;3.60;;
60370;SDS011;48550;40.588;49.684;2023-05-10T08:50:56;21.33;;;7.93;;
60370;SDS011;48550;40.588;49.684;2023-05-10T08:53:24;8.23;;;3.50;;
60370;SDS011;48550;40.588;49.684;2023-05-10T08:55:52;8.77;;;3.50;;
60370;SDS011;48550;40.588;49.684;2023-05-10T08:58:18;7.65;;;3.92;;
60370;SDS011;48550;40.588;49.684;2023-05-10T09:00:44;9.82;;;3.65;;
60370;SDS011;48550;40.588;49.684;2023-05-10T09:03:12;9.50;;;3.63;;
60370;SDS011;48550;40.588;49.684;2023-05-10T09:05:38;9.35;;;3.75;;
60370;SDS011;48550;40.588;49.684;2023-05-10T09:08:04;9.38;;;3.60;;
60370;SDS011;48550;40.588;49.684;2023-05-10T09:10:31;8.73;;;3.78;;
60370;SDS011;48550;40.588;49.684;2023-05-10T09:12:58;8.90;;;3.20;;
60370;SDS011;48550;40.588;49.684;2023-05-10T09:15:24;6.80;;;4.00;;
60370;SDS011;48550;40.588;49.684;2023-05-10T09:17:50;7.07;;;3.50;;
60370;SDS011;48550;40.588;49.684;2023-05-10T09:20:16;9.52;;;3.75;;
60370;SDS011;48550;40.588;49.684;2023-05-10T09:22:42;8.50;;;3.30;;
60370;SDS011;48550;40.588;49.684;2023-05-10T09:25:09;12.40;;;3.78;;
60370;SDS011;48550;40.588;49.684;2023-05-10T09:27:37;9.30;;;3.35;;
60370;SDS011;48550;40.588;49.684;2023-05-10T09:30:05;7.57;;;3.83;;
60370;SDS011;48550;40.588;49.684;2023-05-10T09:32:45;7.07;;;3.30;;
60370;SDS011;48550;40.588;49.684;2023-05-10T09:35:19;7.95;;;3.42;;
60370;SDS011;48550;40.588;49.684;2023-05-10T09:37:47;13.85;;;3.72;;
60370;SDS011;48550;40.588;49.684;2023-05-10T09:40:15;6.90;;;3.30;;
60370;SDS011;48550;40.588;49.684;2023-05-10T09:42:53;7.53;;;3.13;;
60370;SDS011;48550;40.588;49.684;2023-05-10T09:45:23;10.23;;;3.25;;
60370;SDS011;48550;40.588;49.684;2023-05-10T09:47:54;5.63;;;3.08;;
60370;SDS011;48550;40.588;49.684;2023-05-10T09:50:20;11.63;;;4.15;;
60370;SDS011;48550;40.588;49.684;2023-05-10T09:53:00;8.32;;;3.60;;
60370;SDS011;48550;40.588;49.684;2023-05-10T09:58:04;8.52;;;3.22;;
60370;SDS011;48550;40.588;49.684;2023-05-10T10:00:35;8.52;;;3.60;;
60370;SDS011;48550;40.588;49.684;2023-05-10T10:03:02;7.25;;;3.47;;
60370;SDS011;48550;40.588;49.684;2023-05-10T10:05:32;9.07;;;3.60;;
60370;SDS011;48550;40.588;49.684;2023-05-10T10:07:59;8.07;;;3.03;;
60370;SDS011;48550;40.588;49.684;2023-05-10T10:10:27;8.38;;;3.95;;
60370;SDS011;48550;40.588;49.684;2023-05-10T10:12:53;7.07;;;3.17;;
60370;SDS011;48550;40.588;49.684;2023-05-10T10:15:20;7.45;;;3.55;;
60370;SDS011;48550;40.588;49.684;2023-05-10T10:17:47;6.68;;;2.97;;
60370;SDS011;48550;40.588;49.684;2023-05-10T10:20:14;7.88;;;3.33;;
60370;SDS011;48550;40.588;49.684;2023-05-10T10:22:40;5.63;;;2.80;;
60370;SDS011;48550;40.588;49.684;2023-05-10T10:25:07;7.53;;;2.72;;
60370;SDS011;48550;40.588;49.684;2023-05-10T10:30:43;12.43;;;3.38;;
60370;SDS011;48550;40.588;49.684;2023-05-10T10:36:07;10.80;;;3.30;;
60370;SDS011;48550;40.588;49.684;2023-05-10T10:38:37;6.65;;;2.85;;
60370;SDS011;48550;40.588;49.684;2023-05-10T10:54:57;7.00;;;2.92;;
60370;SDS011;48550;40.588;49.684;2023-05-10T10:57:26;11.07;;;4.70;;
60370;SDS011;48550;40.588;49.684;2023-05-10T11:02:44;17.13;;;8.10;;
60370;SDS011;48550;40.588;49.684;2023-05-10T11:08:09;20.70;;;9.73;;
60370;SDS011;48550;40.588;49.684;2023-05-10T11:10:37;10.15;;;3.90;;
60370;SDS011;48550;40.588;49.684;2023-05-10T11:13:05;14.18;;;7.97;;
60370;SDS011;48550;40.588;49.684;2023-05-10T11:15:34;12.73;;;3.72;;
60370;SDS011;48550;40.588;49.684;2023-05-10T11:18:18;9.27;;;3.42;;
60370;SDS011;48550;40.588;49.684;2023-05-10T11:20:49;10.02;;;3.70;;
60370;SDS011;48550;40.588;49.684;2023-05-10T11:25:43;8.98;;;3.80;;
60370;SDS011;48550;40.588;49.684;2023-05-10T11:28:11;11.43;;;4.03;;
60370;SDS011;48550;40.588;49.684;2023-05-10T11:30:38;12.05;;;3.85;;
60370;SDS011;48550;40.588;49.684;2023-05-10T11:33:05;15.40;;;3.72;;
60370;SDS011;48550;40.588;49.684;2023-05-10T11:35:36;10.65;;;4.30;;
60370;SDS011;48550;40.588;49.684;2023-05-10T11:38:07;6.97;;;4.07;;
60370;SDS011;48550;40.588;49.684;2023-05-10T11:40:37;13.15;;;4.47;;
60370;SDS011;48550;40.588;49.684;2023-05-10T11:43:03;12.95;;;4.53;;
60370;SDS011;48550;40.588;49.684;2023-05-10T11:45:33;10.60;;;3.83;;
60370;SDS011;48550;40.588;49.684;2023-05-10T11:48:00;7.78;;;3.65;;
60370;SDS011;48550;40.588;49.684;2023-05-10T11:50:26;7.70;;;3.80;;
60370;SDS011;48550;40.588;49.684;2023-05-10T11:52:53;9.43;;;4.28;;
60370;SDS011;48550;40.588;49.684;2023-05-10T11:55:20;11.93;;;4.47;;
60370;SDS011;48550;40.588;49.684;2023-05-10T11:57:46;10.70;;;3.97;;
60370;SDS011;48550;40.588;49.684;2023-05-10T12:00:14;9.70;;;4.60;;
60370;SDS011;48550;40.588;49.684;2023-05-10T12:02:40;9.15;;;5.05;;
60370;SDS011;48550;40.588;49.684;2023-05-10T12:05:06;13.43;;;5.13;;
60370;SDS011;48550;40.588;49.684;2023-05-10T12:07:33;13.40;;;5.43;;
60370;SDS011;48550;40.588;49.684;2023-05-10T12:10:05;11.15;;;4.90;;
60370;SDS011;48550;40.588;49.684;2023-05-10T12:12:42;13.55;;;5.47;;
60370;SDS011;48550;40.588;49.684;2023-05-10T12:15:20;10.45;;;5.05;;
60370;SDS011;48550;40.588;49.684;2023-05-10T12:17:47;13.73;;;5.15;;
60370;SDS011;48550;40.588;49.684;2023-05-10T12:20:18;8.43;;;4.13;;
60370;SDS011;48550;40.588;49.684;2023-05-10T12:22:54;13.27;;;4.22;;
60370;SDS011;48550;40.588;49.684;2023-05-10T12:25:21;10.50;;;4.00;;
60370;SDS011;48550;40.588;49.684;2023-05-10T12:27:49;11.52;;;4.68;;
60370;SDS011;48550;40.588;49.684;2023-05-10T12:30:24;12.77;;;4.75;;
60370;SDS011;48550;40.588;49.684;2023-05-10T12:32:51;10.02;;;4.28;;
60370;SDS011;48550;40.588;49.684;2023-05-10T12:35:31;13.30;;;4.70;;
60370;SDS011;48550;40.588;49.684;2023-05-10T12:37:58;9.20;;;4.63;;
60370;SDS011;48550;40.588;49.684;2023-05-10T12:40:24;10.48;;;4.40;;
60370;SDS011;48550;40.588;49.684;2023-05-10T12:42:50;10.10;;;4.10;;
60370;SDS011;48550;40.588;49.684;2023-05-10T12:45:17;17.80;;;4.80;;
60370;SDS011;48550;40.588;49.684;2023-05-10T12:47:43;13.55;;;5.00;;
60370;SDS011;48550;40.588;49.684;2023-05-10T12:50:09;13.40;;;5.13;;
60370;SDS011;48550;40.588;49.684;2023-05-10T12:52:36;10.30;;;4.72;;
60370;SDS011;48550;40.588;49.684;2023-05-10T12:55:02;12.18;;;4.90;;
60370;SDS011;48550;40.588;49.684;2023-05-10T12:57:28;11.93;;;4.85;;
60370;SDS011;48550;40.588;49.684;2023-05-10T12:59:54;12.50;;;4.65;;
60370;SDS011;48550;40.588;49.684;2023-05-10T13:02:20;12.88;;;5.18;;
60370;SDS011;48550;40.588;49.684;2023-05-10T13:04:48;9.57;;;4.65;;
60370;SDS011;48550;40.588;49.684;2023-05-10T13:07:14;13.13;;;4.57;;
60370;SDS011;48550;40.588;49.684;2023-05-10T13:09:39;14.18;;;5.57;;
60370;SDS011;48550;40.588;49.684;2023-05-10T13:12:05;16.80;;;6.13;;
60370;SDS011;48550;40.588;49.684;2023-05-10T13:14:31;13.30;;;5.10;;
60370;SDS011;48550;40.588;49.684;2023-05-10T13:16:57;17.95;;;5.47;;
60370;SDS011;48550;40.588;49.684;2023-05-10T13:19:23;16.25;;;4.53;;
60370;SDS011;48550;40.588;49.684;2023-05-10T13:21:49;17.17;;;5.68;;
60370;SDS011;48550;40.588;49.684;2023-05-10T13:24:14;13.20;;;5.60;;
60370;SDS011;48550;40.588;49.684;2023-05-10T13:26:40;9.80;;;4.55;;
60370;SDS011;48550;40.588;49.684;2023-05-10T13:29:06;16.92;;;4.90;;
60370;SDS011;48550;40.588;49.684;2023-05-10T13:31:33;11.00;;;4.28;;
60370;SDS011;48550;40.588;49.684;2023-05-10T13:34:00;11.30;;;4.38;;
60370;SDS011;48550;40.588;49.684;2023-05-10T13:36:26;16.20;;;4.75;;
60370;SDS011;48550;40.588;49.684;2023-05-10T13:38:51;10.85;;;4.65;;
60370;SDS011;48550;40.588;49.684;2023-05-10T13:41:17;7.28;;;4.10;;
60370;SDS011;48550;40.588;49.684;2023-05-10T13:43:43;9.13;;;4.22;;
60370;SDS011;48550;40.588;49.684;2023-05-10T13:46:09;10.25;;;4.70;;
60370;SDS011;48550;40.588;49.684;2023-05-10T13:48:35;10.80;;;4.60;;
60370;SDS011;48550;40.588;49.684;2023-05-10T13:51:02;7.85;;;4.10;;
60370;SDS011;48550;40.588;49.684;2023-05-10T13:53:28;9.02;;;4.38;;
60370;SDS011;48550;40.588;49.684;2023-05-10T13:55:54;13.65;;;5.10;;
60370;SDS011;48550;40.588;49.684;2023-05-10T13:58:19;6.80;;;4.68;;
60370;SDS011;48550;40.588;49.684;2023-05-10T14:00:45;10.15;;;4.28;;
60370;SDS011;48550;40.588;49.684;2023-05-10T14:03:11;11.50;;;4.80;;
60370;SDS011;48550;40.588;49.684;2023-05-10T14:05:37;11.20;;;5.43;;
60370;SDS011;48550;40.588;49.684;2023-05-10T14:08:03;13.77;;;5.25;;
60370;SDS011;48550;40.588;49.684;2023-05-10T14:10:29;14.93;;;5.88;;
60370;SDS011;48550;40.588;49.684;2023-05-10T14:12:55;14.60;;;9.02;;
60370;SDS011;48550;40.588;49.684;2023-05-10T14:15:21;12.27;;;4.88;;
60370;SDS011;48550;40.588;49.684;2023-05-10T14:17:47;10.65;;;5.10;;
60370;SDS011;48550;40.588;49.684;2023-05-10T14:20:12;8.95;;;5.82;;
60370;SDS011;48550;40.588;49.684;2023-05-10T14:22:38;10.15;;;5.85;;
60370;SDS011;48550;40.588;49.684;2023-05-10T14:25:04;12.40;;;7.30;;
60370;SDS011;48550;40.588;49.684;2023-05-10T14:27:30;11.73;;;6.57;;
60370;SDS011;48550;40.588;49.684;2023-05-10T14:29:55;14.00;;;6.38;;
60370;SDS011;48550;40.588;49.684;2023-05-10T14:32:21;13.30;;;5.82;;
60370;SDS011;48550;40.588;49.684;2023-05-10T14:34:47;12.05;;;6.63;;
60370;SDS011;48550;40.588;49.684;2023-05-10T14:37:13;10.00;;;6.00;;
60370;SDS011;48550;40.588;49.684;2023-05-10T14:39:38;10.00;;;6.75;;
60370;SDS011;48550;40.588;49.684;2023-05-10T14:42:04;21.70;;;7.88;;
60370;SDS011;48550;40.588;49.684;2023-05-10T14:44:30;14.55;;;7.50;;
60370;SDS011;48550;40.588;49.684;2023-05-10T14:46:56;21.40;;;7.95;;
60370;SDS011;48550;40.588;49.684;2023-05-10T14:49:22;16.67;;;6.93;;
60370;SDS011;48550;40.588;49.684;2023-05-10T14:51:50;15.98;;;7.60;;
60370;SDS011;48550;40.588;49.684;2023-05-10T14:54:16;10.07;;;7.35;;
60370;SDS011;48550;40.588;49.684;2023-05-10T14:56:42;18.13;;;8.20;;
60370;SDS011;48550;40.588;49.684;2023-05-10T14:59:08;22.38;;;10.90;;
60370;SDS011;48550;40.588;49.684;2023-05-10T15:01:33;21.55;;;10.77;;
60370;SDS011;48550;40.588;49.684;2023-05-10T15:04:02;15.65;;;8.32;;
60370;SDS011;48550;40.588;49.684;2023-05-10T15:06:32;24.20;;;10.70;;
60370;SDS011;48550;40.588;49.684;2023-05-10T15:08:59;18.38;;;9.05;;
60370;SDS011;48550;40.588;49.684;2023-05-10T15:11:26;13.07;;;7.68;;
60370;SDS011;48550;40.588;49.684;2023-05-10T15:13:52;19.42;;;8.20;;
60370;SDS011;48550;40.588;49.684;2023-05-10T15:16:18;21.27;;;9.15;;